Strona główna
METAR-TAF:

METAR-TAF

Lotnisko :

Port lotniczy Ipoh

Ipoh, Malezja

Szerokość geograficzna: 04-34-09N, Długość geograficzna: 101-05-35E, wysokość: 40 m

Aktualna obserwacja pogody

Raport powstał 1 godzina i 9 minut temu, godzina 11:00 UTC
Wiatr 8 kt od zachodnio-północny zachód, zmienny między zachód i północ
Temperatura 32°C
Wilgotność 52%
Ciśnienie 1006 hPa
Widzialność 10 km lub więcej
Mało chmury na wysokości 1900 ft

METAR: WMKI 261100Z 30008KT 260V350 9999 FEW019 32/21 Q1006

czas: 20:09 (12:09 UTC)

Prognoza

Raport powstał 1 godzina i 9 minut temu, godzina 11:00 UTC
Prognoza ważna od 26 godzina 12 UTC do 27 godzina 12 UTC
Wiatr 3 kt z kierunków zmiennych
Widzialność: 8000 m
Mało chmury na wysokości 2700 ft
Stopniowe zmiany
od 27 godzina 00 UTC do 27 godzina 02 UTC
Wiatr 7 kt od północno-północny wschód
Widzialność 10 km lub więcej
Mało chmury na wysokości 1900 ft

TAF: WMKI 261100Z 2612/2712 VRB03KT 8000 FEW027 BECMG 2700/2702 03007KT 9999 FEW019

Obserwacja i prognoza pogody dla ponad 4000 lotnisk (raport METAR i TAF).

Dostępne stacje oznaczono żółtymi i czerwonymi punktami na mapie.

Najedź kursorem aby zobaczyć nazwę stacji.

Kliknij aby zobaczyć obserwacje i prognozy pogody.

Aby zmienić mapę: kliknij na zielony przycisk z czarnym krzyżykiem, aby powiększyć; na zielony przycisk z myślnikiem, aby pomniejszyć; na zielone strzałki, aby przejść do map sąsiednich.


METAR-TAF: